Time;durP1;ratioP1;P1;durP2;ratioP2;P2;SDS_P1;SDS_P2;PMS_P1;PMS_P2;Temp;Humidity;BMP_temperature;BMP_pressure;BME280_temperature;BME280_humidity;BME280_pressure;Samples;Min_cycle;Max_cycle;Signal;HPM_P1;HPM_P2
2022/01/22 00:00:44;;;;;;;1.20;1.10;;;18.90;57.30;;;;;;5073534;28;20052;-68
2022/01/22 00:03:10;;;;;;;1.63;1.20;;;18.90;57.30;;;;;;5072334;28;20090;-68
2022/01/22 00:05:35;;;;;;;1.20;0.95;;;18.90;57.30;;;;;;5072717;28;20095;-68
2022/01/22 00:08:01;;;;;;;1.40;1.13;;;18.90;57.30;;;;;;5073514;28;20103;-68
2022/01/22 00:10:27;;;;;;;1.85;1.00;;;18.90;57.30;;;;;;5072176;28;20063;-68
2022/01/22 00:15:20;;;;;;;1.73;1.08;;;18.90;57.40;;;;;;5092404;28;20023;-68
2022/01/22 00:17:46;;;;;;;1.10;1.00;;;18.90;57.30;;;;;;5092339;28;20031;-68
2022/01/22 00:20:12;;;;;;;1.73;1.05;;;18.90;57.40;;;;;;5091844;28;20031;-67
2022/01/22 00:22:38;;;;;;;1.00;0.90;;;18.90;57.30;;;;;;5092294;28;20016;-68
2022/01/22 00:25:08;;;;;;;1.45;1.13;;;18.90;57.40;;;;;;5093357;28;20392;-68
2022/01/22 00:27:34;;;;;;;2.03;1.10;;;18.90;57.30;;;;;;5091740;28;20043;-67
2022/01/22 00:30:00;;;;;;;1.55;1.20;;;18.90;57.40;;;;;;5092845;28;20022;-67
2022/01/22 00:32:26;;;;;;;1.58;1.20;;;18.90;57.40;;;;;;5072938;28;20029;-67
2022/01/22 00:34:51;;;;;;;1.83;1.20;;;18.90;57.40;;;;;;5072689;28;20016;-68
2022/01/22 00:37:17;;;;;;;1.30;1.20;;;18.90;57.40;;;;;;5072934;28;20024;-68
2022/01/22 00:39:42;;;;;;;1.83;1.50;;;18.90;57.40;;;;;;5072787;28;20100;-68
2022/01/22 00:42:13;;;;;;;1.45;1.35;;;18.90;57.40;;;;;;5072640;28;20494;-68
2022/01/22 00:44:39;;;;;;;1.52;1.42;;;18.90;57.40;;;;;;5072787;28;20016;-68
2022/01/22 00:47:05;;;;;;;1.48;1.30;;;18.90;57.50;;;;;;5072397;28;20471;-68
2022/01/22 00:49:31;;;;;;;1.30;1.20;;;18.90;57.40;;;;;;5071436;28;20055;-68
2022/01/22 00:51:56;;;;;;;2.55;1.27;;;18.90;57.50;;;;;;5071516;28;20429;-68
2022/01/22 00:54:22;;;;;;;1.85;1.30;;;18.90;57.50;;;;;;5054707;28;20056;-68
2022/01/22 00:56:48;;;;;;;1.40;1.17;;;18.90;57.50;;;;;;5054793;28;20094;-67
2022/01/22 00:59:14;;;;;;;1.60;1.30;;;18.90;57.50;;;;;;5071462;28;20095;-68
2022/01/22 01:01:39;;;;;;;1.40;1.30;;;18.90;57.50;;;;;;5070945;28;20031;-68
2022/01/22 01:04:08;;;;;;;1.88;1.20;;;18.90;57.50;;;;;;5070950;28;20031;-68
2022/01/22 01:06:33;;;;;;;1.42;1.33;;;18.90;57.50;;;;;;5070989;28;20436;-68
2022/01/22 01:09:01;;;;;;;2.50;1.42;;;18.90;57.50;;;;;;5072342;28;20028;-68
2022/01/22 01:11:28;;;;;;;2.17;1.33;;;18.90;57.50;;;;;;5073717;28;20031;-68
2022/01/22 01:13:58;;;;;;;1.50;1.40;;;18.90;57.50;;;;;;5092641;28;20367;-68
2022/01/22 01:35:09;;;;;;;1.70;1.02;;;18.90;57.70;;;;;;5071914;28;20040;-68
2022/01/22 01:37:35;;;;;;;1.52;1.10;;;18.90;57.70;;;;;;5071972;28;20086;-68
2022/01/22 01:40:04;;;;;;;1.88;1.20;;;18.90;57.60;;;;;;5072325;28;20032;-68
2022/01/22 01:45:01;;;;;;;1.48;1.23;;;18.90;57.70;;;;;;5054750;28;20024;-68
2022/01/22 01:47:26;;;;;;;1.40;1.30;;;18.90;57.70;;;;;;5070745;28;20028;-68
2022/01/22 01:49:52;;;;;;;1.50;1.20;;;18.90;57.60;;;;;;5071057;28;20047;-68
2022/01/22 01:52:25;;;;;;;2.97;1.27;;;18.90;57.60;;;;;;5071937;28;20020;-68
2022/01/22 01:55:09;;;;;;;2.63;0.98;;;18.90;57.80;;;;;;5070692;28;20036;-68
2022/01/22 01:57:42;;;;;;;1.42;1.20;;;18.90;57.70;;;;;;5056352;28;20540;-68
2022/01/22 02:00:20;;;;;;;1.50;1.30;;;18.90;57.70;;;;;;5055017;28;20028;-68
2022/01/22 02:02:46;;;;;;;1.20;1.00;;;18.90;57.70;;;;;;5071920;28;20021;-68
2022/01/22 02:05:12;;;;;;;1.40;1.05;;;18.90;57.70;;;;;;5053986;28;20021;-68
2022/01/22 02:07:40;;;;;;;2.25;1.05;;;18.90;57.70;;;;;;5053791;28;20047;-68
2022/01/22 02:10:08;;;;;;;1.77;1.30;;;18.90;57.70;;;;;;5071663;28;20529;-68
2022/01/22 02:23:36;;;;;;;1.30;1.00;;;18.80;57.80;;;;;;5095657;28;20035;-68
2022/01/22 02:26:05;;;;;;;2.03;1.02;;;18.80;57.80;;;;;;5094820;28;20111;-68
2022/01/22 02:28:32;;;;;;;0.90;0.85;;;18.90;57.80;;;;;;5093892;28;20524;-68
2022/01/22 02:33:55;;;;;;;1.38;1.20;;;18.90;57.80;;;;;;5085575;28;20082;-68
2022/01/22 02:36:35;;;;;;;1.30;1.20;;;18.90;57.80;;;;;;5074108;28;20568;-68
2022/01/22 02:41:26;;;;;;;1.95;1.10;;;18.80;57.80;;;;;;5073858;28;20477;-68
2022/01/22 02:43:54;;;;;;;2.10;1.10;;;18.90;57.90;;;;;;5074800;28;20454;-68
2022/01/22 02:46:23;;;;;;;1.80;1.10;;;18.90;57.90;;;;;;5057455;28;20028;-68
2022/01/22 02:48:48;;;;;;;1.75;1.30;;;18.90;57.90;;;;;;5057341;28;20057;-68
2022/01/22 02:51:14;;;;;;;2.80;1.17;;;18.90;57.90;;;;;;5073797;28;20012;-68
2022/01/22 02:53:40;;;;;;;2.05;1.15;;;18.90;57.90;;;;;;5073389;28;20032;-68
2022/01/22 02:56:06;;;;;;;1.42;1.33;;;18.90;57.80;;;;;;5074926;28;20025;-68
2022/01/22 02:58:31;;;;;;;1.30;1.20;;;18.90;57.90;;;;;;5073425;28;20082;-68
2022/01/22 03:00:57;;;;;;;1.20;1.10;;;18.90;57.90;;;;;;5073509;28;20025;-68
2022/01/22 03:03:23;;;;;;;1.67;1.02;;;18.90;57.90;;;;;;5073470;28;20115;-67
2022/01/22 03:05:48;;;;;;;1.20;1.10;;;18.90;57.90;;;;;;5073299;28;20029;-68
2022/01/22 03:08:15;;;;;;;1.38;0.95;;;18.90;57.90;;;;;;5074522;28;20051;-68
2022/01/22 03:10:49;;;;;;;1.85;1.35;;;18.90;57.90;;;;;;5074456;28;20073;-68
2022/01/22 03:13:52;;;;;;;1.30;1.00;;;18.90;57.90;;;;;;5090925;28;20031;-68
2022/01/22 03:16:13;;;;;;;2.00;1.10;;;18.90;57.90;;;;;;5094405;28;20021;-68
2022/01/22 03:18:56;;;;;;;1.38;1.10;;;18.90;58.00;;;;;;5094660;28;20062;-68
2022/01/22 03:29:19;;;;;;;1.77;1.23;;;18.80;57.90;;;;;;5094318;28;20055;-67
2022/01/22 03:31:45;;;;;;;1.00;0.93;;;18.90;58.00;;;;;;5093196;28;20020;-67
2022/01/22 03:34:11;;;;;;;0.93;0.93;;;18.90;58.00;;;;;;5072826;28;20542;-67
2022/01/22 03:36:37;;;;;;;1.08;0.80;;;18.90;58.10;;;;;;5056367;28;20052;-67
2022/01/22 03:39:04;;;;;;;1.33;1.20;;;18.90;58.10;;;;;;5072723;28;20420;-67
2022/01/22 03:41:30;;;;;;;1.77;1.00;;;18.90;58.00;;;;;;5055999;28;20210;-67
2022/01/22 03:43:56;;;;;;;1.40;1.00;;;18.90;58.00;;;;;;5074059;28;20083;-68
2022/01/22 03:46:22;;;;;;;1.00;0.90;;;18.90;58.00;;;;;;5074005;28;20028;-68
2022/01/22 03:48:48;;;;;;;2.63;0.90;;;18.90;58.00;;;;;;5055944;28;20029;-68
2022/01/22 03:51:13;;;;;;;1.27;1.10;;;18.90;58.00;;;;;;5056114;28;20020;-68
2022/01/22 03:53:39;;;;;;;0.73;0.73;;;18.90;58.00;;;;;;5073705;28;20063;-68
2022/01/22 03:56:06;;;;;;;1.08;1.02;;;18.90;58.00;;;;;;5055543;28;20009;-68
2022/01/22 03:58:34;;;;;;;1.10;1.00;;;18.90;58.00;;;;;;5073745;28;20048;-68
2022/01/22 04:03:54;;;;;;;1.77;0.93;;;18.90;58.00;;;;;;5072686;28;20505;-68
2022/01/22 04:09:07;;;;;;;1.00;0.90;;;18.90;58.10;;;;;;5073403;28;20028;-67
2022/01/22 04:11:37;;;;;;;1.40;1.08;;;18.90;58.10;;;;;;5075402;28;20051;-68
2022/01/22 04:14:04;;;;;;;1.65;1.05;;;18.90;58.10;;;;;;5092458;28;20044;-68
2022/01/22 04:16:31;;;;;;;1.35;0.90;;;18.90;58.10;;;;;;5075684;28;20398;-68
2022/01/22 04:27:14;;;;;;;1.45;1.10;;;18.90;58.20;;;;;;5092446;28;20031;-68
2022/01/22 04:29:40;;;;;;;2.30;1.10;;;18.80;58.10;;;;;;5075687;28;20524;-68
2022/01/22 04:32:06;;;;;;;0.85;0.85;;;18.80;58.10;;;;;;5092011;28;20474;-68
2022/01/22 04:34:32;;;;;;;1.80;0.93;;;18.80;58.10;;;;;;5092184;28;20016;-68
2022/01/22 04:36:58;;;;;;;0.90;0.90;;;18.80;58.10;;;;;;5075561;28;20380;-67
2022/01/22 04:39:25;;;;;;;1.60;1.10;;;18.90;58.10;;;;;;5072524;28;20024;-68
2022/01/22 04:41:55;;;;;;;1.40;1.20;;;18.80;58.10;;;;;;5055188;28;20020;-67
2022/01/22 04:44:23;;;;;;;2.47;1.13;;;18.90;58.10;;;;;;5071654;28;20013;-68
2022/01/22 04:52:31;;;;;;;1.05;1.00;;;18.90;58.20;;;;;;5071647;28;20028;-67
2022/01/22 04:55:00;;;;;;;1.67;1.02;;;18.90;58.20;;;;;;5057198;28;20031;-67
2022/01/22 04:57:30;;;;;;;2.42;1.15;;;18.80;58.10;;;;;;5072658;28;20066;-67
2022/01/22 04:59:56;;;;;;;1.25;0.90;;;18.80;58.10;;;;;;5071261;28;20024;-67
2022/01/22 05:02:21;;;;;;;1.10;1.00;;;18.80;58.10;;;;;;5054759;28;20033;-68
2022/01/22 05:04:47;;;;;;;2.10;1.30;;;18.80;58.10;;;;;;5072370;28;20437;-68
2022/01/22 05:07:13;;;;;;;0.93;0.85;;;18.80;58.10;;;;;;5072217;28;20025;-68
2022/01/22 05:09:38;;;;;;;1.10;1.00;;;18.80;58.10;;;;;;5072108;28;20028;-68
2022/01/22 05:12:05;;;;;;;1.13;1.02;;;18.80;58.10;;;;;;5079218;28;20016;-68
2022/01/22 05:14:31;;;;;;;1.45;1.00;;;18.80;58.10;;;;;;5091519;28;20097;-67
2022/01/22 05:16:59;;;;;;;0.93;0.75;;;18.80;58.10;;;;;;5092481;28;20056;-68
2022/01/22 05:19:35;;;;;;;1.75;1.00;;;18.80;58.10;;;;;;5091235;28;20046;-68
2022/01/22 05:22:11;;;;;;;1.17;1.08;;;18.80;58.10;;;;;;5092620;28;20024;-68
2022/01/22 05:24:41;;;;;;;0.80;0.75;;;18.90;58.30;;;;;;5092371;28;20028;-68
2022/01/22 05:32:23;;;;;;;1.35;1.00;;;18.80;58.20;;;;;;5092176;28;20101;-68
2022/01/22 05:37:34;;;;;;;0.82;0.82;;;18.80;58.20;;;;;;5074249;28;20525;-68
2022/01/22 05:39:59;;;;;;;0.88;0.88;;;18.80;58.30;;;;;;5072195;28;20028;-68
2022/01/22 05:42:25;;;;;;;0.65;0.65;;;18.80;58.20;;;;;;5070861;28;20079;-68
2022/01/22 05:44:51;;;;;;;1.08;0.90;;;18.80;58.20;;;;;;5070739;28;20048;-68
2022/01/22 05:47:22;;;;;;;1.45;1.00;;;18.80;58.20;;;;;;5070853;28;20028;-68
2022/01/22 05:49:47;;;;;;;0.85;0.80;;;18.80;58.20;;;;;;5073251;28;20024;-68
2022/01/22 05:52:19;;;;;;;0.77;0.77;;;18.80;58.20;;;;;;5075640;28;20021;-68
2022/01/22 06:00:12;;;;;;;0.98;0.93;;;18.80;58.30;;;;;;5075868;28;20112;-68
2022/01/22 06:02:38;;;;;;;1.45;1.00;;;18.80;58.30;;;;;;5074684;28;20056;-68
2022/01/22 06:05:04;;;;;;;0.82;0.82;;;18.80;58.30;;;;;;5074393;28;20110;-68
2022/01/22 06:07:30;;;;;;;0.93;0.90;;;18.80;58.30;;;;;;5074107;28;20032;-68
2022/01/22 06:12:42;;;;;;;0.80;0.80;;;18.80;58.30;;;;;;5085743;28;20452;-68
2022/01/22 06:15:09;;;;;;;3.38;0.90;;;18.80;58.30;;;;;;5095010;28;20012;-67
2022/01/22 06:17:34;;;;;;;0.80;0.80;;;18.80;59.30;;;;;;5094691;28;20034;-68
2022/01/22 06:20:00;;;;;;;0.80;0.80;;;18.80;58.30;;;;;;5095835;28;20020;-67
2022/01/22 06:22:25;;;;;;;0.80;0.80;;;18.80;58.30;;;;;;5095506;28;20405;-67
2022/01/22 06:24:51;;;;;;;1.02;0.82;;;18.80;58.30;;;;;;5095592;28;20509;-67
2022/01/22 06:27:17;;;;;;;1.05;0.90;;;18.80;58.30;;;;;;5094113;28;20070;-68
2022/01/22 06:29:42;;;;;;;2.10;0.90;;;18.80;58.30;;;;;;5095564;28;20028;-68
2022/01/22 06:32:08;;;;;;;2.03;0.77;;;18.80;58.30;;;;;;5095404;28;20483;-67
2022/01/22 06:34:33;;;;;;;1.40;1.30;;;18.80;58.30;;;;;;5095588;28;20513;-67
2022/01/22 06:36:59;;;;;;;2.08;0.90;;;18.80;58.30;;;;;;5090933;28;20071;-68
2022/01/22 06:39:27;;;;;;;0.80;0.77;;;18.80;58.30;;;;;;5075305;28;20100;-68
2022/01/22 06:41:53;;;;;;;0.90;0.80;;;18.80;58.30;;;;;;5075138;28;20046;-68
2022/01/22 06:44:21;;;;;;;0.68;0.60;;;18.80;58.30;;;;;;5074041;28;20478;-67
2022/01/22 06:46:53;;;;;;;0.80;0.80;;;18.80;58.30;;;;;;5073842;28;20047;-68
2022/01/22 06:49:19;;;;;;;0.80;0.80;;;18.80;58.30;;;;;;5057363;28;20029;-67
2022/01/22 06:51:45;;;;;;;1.00;0.90;;;18.80;58.30;;;;;;5056833;28;20029;-68
2022/01/22 06:54:11;;;;;;;0.75;0.73;;;18.80;58.40;;;;;;5074909;28;20021;-68
2022/01/22 06:56:37;;;;;;;0.80;0.80;;;18.80;58.30;;;;;;5057061;28;20403;-68
2022/01/22 06:59:04;;;;;;;1.55;0.98;;;18.80;58.30;;;;;;5074679;28;20103;-68
2022/01/22 07:01:29;;;;;;;0.77;0.77;;;18.80;58.40;;;;;;5073270;28;20020;-67
2022/01/22 07:03:55;;;;;;;5.28;0.90;;;18.80;58.40;;;;;;5073577;28;20031;-67
2022/01/22 07:06:22;;;;;;;0.80;0.80;;;18.80;58.40;;;;;;5073071;28;20021;-67
2022/01/22 07:08:48;;;;;;;0.98;0.80;;;18.80;58.30;;;;;;5073507;28;20025;-67
2022/01/22 07:11:13;;;;;;;0.70;0.70;;;18.80;58.30;;;;;;5083379;28;20086;-67
2022/01/22 07:13:39;;;;;;;1.85;0.70;;;18.80;58.30;;;;;;5087082;28;20024;-68
2022/01/22 07:16:05;;;;;;;0.80;0.80;;;18.80;58.40;;;;;;5083493;28;20433;-68
2022/01/22 07:18:31;;;;;;;1.10;1.00;;;18.80;58.40;;;;;;5056453;28;20059;-67
2022/01/22 07:20:57;;;;;;;0.70;0.70;;;18.80;58.40;;;;;;5089952;28;20063;-68
2022/01/22 07:25:57;;;;;;;1.08;0.90;;;18.80;58.40;;;;;;5085386;28;20489;-68
2022/01/22 07:28:23;;;;;;;1.13;0.80;;;18.80;58.40;;;;;;5085207;28;20040;-68
2022/01/22 07:30:49;;;;;;;0.90;0.70;;;18.80;58.40;;;;;;5094445;28;20433;-68
2022/01/22 07:33:15;;;;;;;1.13;0.80;;;18.80;58.40;;;;;;5077436;28;20099;-68
2022/01/22 07:35:40;;;;;;;0.93;0.50;;;18.80;58.40;;;;;;5087405;28;20016;-68
2022/01/22 07:38:08;;;;;;;1.42;0.93;;;18.80;58.50;;;;;;5083644;28;20047;-68
2022/01/22 07:40:34;;;;;;;0.88;0.77;;;18.80;58.40;;;;;;5092946;28;20490;-68
2022/01/22 07:43:00;;;;;;;0.85;0.80;;;18.80;58.40;;;;;;5079375;28;20067;-68
2022/01/22 07:45:25;;;;;;;1.13;1.00;;;18.80;58.40;;;;;;5076588;28;20024;-68
2022/01/22 07:47:51;;;;;;;1.25;0.80;;;18.80;58.40;;;;;;5086888;28;20029;-68
2022/01/22 07:50:17;;;;;;;1.58;0.90;;;18.80;58.40;;;;;;5084747;28;20035;-68
2022/01/22 07:52:42;;;;;;;0.95;0.80;;;18.80;58.40;;;;;;5079691;28;20020;-68
2022/01/22 07:55:08;;;;;;;2.58;0.85;;;18.80;58.40;;;;;;5078568;28;20033;-68
2022/01/22 07:57:34;;;;;;;1.35;0.70;;;18.80;58.50;;;;;;5080517;28;20103;-68
2022/01/22 07:59:59;;;;;;;1.45;0.93;;;18.90;58.50;;;;;;5077523;28;20368;-68
2022/01/22 08:02:25;;;;;;;2.25;0.75;;;18.90;58.50;;;;;;5075334;28;20023;-68
2022/01/22 08:04:51;;;;;;;0.70;0.70;;;18.80;58.50;;;;;;5087158;28;20085;-68
2022/01/22 08:07:16;;;;;;;3.75;0.90;;;18.80;58.50;;;;;;5084236;28;20031;-68
2022/01/22 08:09:43;;;;;;;1.58;0.70;;;18.90;58.60;;;;;;5091780;28;20132;-68
2022/01/22 08:12:09;;;;;;;0.80;0.80;;;18.90;58.50;;;;;;5084316;28;20398;-68
2022/01/22 08:14:35;;;;;;;0.98;0.70;;;18.80;58.50;;;;;;5073865;28;20379;-68
2022/01/22 08:17:01;;;;;;;1.23;0.85;;;18.90;58.50;;;;;;5072369;28;20020;-68
2022/01/22 08:19:26;;;;;;;0.85;0.70;;;18.90;58.60;;;;;;5073704;28;20109;-68
2022/01/22 08:21:52;;;;;;;0.93;0.82;;;18.90;58.60;;;;;;5072479;28;20482;-68
2022/01/22 08:24:21;;;;;;;1.00;0.80;;;18.80;58.50;;;;;;5055171;28;20033;-68
2022/01/22 08:26:52;;;;;;;2.08;0.70;;;18.90;58.60;;;;;;5084271;28;20070;-68
2022/01/22 08:29:17;;;;;;;1.23;0.80;;;18.90;58.60;;;;;;5082890;28;20078;-68
2022/01/22 08:32:04;;;;;;;0.85;0.70;;;18.90;58.60;;;;;;5078806;28;20044;-68
2022/01/22 08:37:14;;;;;;;1.08;0.70;;;18.80;58.60;;;;;;5082627;28;20097;-68
2022/01/22 08:39:40;;;;;;;0.93;0.70;;;18.80;58.60;;;;;;5085646;28;20112;-68
2022/01/22 08:42:06;;;;;;;0.82;0.70;;;18.80;58.60;;;;;;5076047;28;20021;-68
2022/01/22 08:44:32;;;;;;;0.60;0.60;;;18.90;58.70;;;;;;5087753;28;20028;-68
2022/01/22 08:46:57;;;;;;;1.65;0.73;;;18.90;58.60;;;;;;5078121;28;20440;-68
2022/01/22 08:49:25;;;;;;;1.70;0.90;;;18.90;58.60;;;;;;5081913;28;20063;-68
2022/01/22 08:51:51;;;;;;;0.90;0.60;;;18.90;58.60;;;;;;5085967;28;20417;-68
2022/01/22 08:54:17;;;;;;;0.90;0.80;;;18.90;58.60;;;;;;5074350;28;20028;-67
2022/01/22 08:56:42;;;;;;;1.77;0.60;;;18.80;58.60;;;;;;5086714;28;20091;-68
2022/01/22 08:59:08;;;;;;;1.05;0.68;;;18.90;58.60;;;;;;5080626;28;20022;-67
2022/01/22 09:01:35;;;;;;;0.68;0.68;;;18.90;58.70;;;;;;5079128;28;20386;-68
2022/01/22 09:04:00;;;;;;;1.30;0.73;;;18.90;58.70;;;;;;5086685;28;20024;-68
2022/01/22 09:06:28;;;;;;;1.35;0.65;;;18.90;58.70;;;;;;5075319;28;20512;-68
2022/01/22 09:09:07;;;;;;;0.70;0.68;;;18.90;58.60;;;;;;5085233;28;20020;-68
2022/01/22 09:11:33;;;;;;;0.95;0.70;;;18.90;58.70;;;;;;5081072;28;20286;-68
2022/01/22 09:13:59;;;;;;;1.38;0.60;;;18.90;58.70;;;;;;5087179;28;20049;-68
2022/01/22 09:16:24;;;;;;;2.03;1.00;;;18.90;58.70;;;;;;5088261;28;20095;-68
2022/01/22 09:18:53;;;;;;;0.80;0.65;;;18.90;58.70;;;;;;5076337;28;20023;-68
2022/01/22 09:21:19;;;;;;;1.00;0.73;;;18.90;58.70;;;;;;5082878;28;20017;-68
2022/01/22 09:23:44;;;;;;;1.80;0.60;;;18.90;58.70;;;;;;5082829;28;20031;-70
2022/01/22 09:26:10;;;;;;;5.03;0.80;;;18.90;58.60;;;;;;5098500;28;20110;-70
2022/01/22 09:28:37;;;;;;;1.48;0.90;;;18.90;58.70;;;;;;5099162;28;20047;-69
2022/01/22 09:31:03;;;;;;;1.80;0.70;;;18.90;58.90;;;;;;5081044;28;20032;-70
2022/01/22 09:33:29;;;;;;;1.33;0.77;;;18.90;58.90;;;;;;5092144;28;20019;-68
2022/01/22 09:35:55;;;;;;;0.98;0.77;;;18.90;58.90;;;;;;5071905;28;20021;-70
2022/01/22 09:38:21;;;;;;;1.02;0.80;;;18.90;59.00;;;;;;5071862;28;20439;-71
2022/01/22 09:40:46;;;;;;;0.68;0.60;;;19.00;58.90;;;;;;5082845;28;20020;-71
2022/01/22 09:43:12;;;;;;;1.55;1.00;;;19.00;59.90;;;;;;5094610;28;20024;-71
2022/01/22 09:45:38;;;;;;;2.08;0.68;;;19.00;58.90;;;;;;5073594;28;20024;-70
2022/01/22 09:48:04;;;;;;;1.48;0.70;;;19.00;58.80;;;;;;5092322;28;20391;-71
2022/01/22 09:50:30;;;;;;;1.08;0.80;;;19.10;58.90;;;;;;5085349;28;20024;-71
2022/01/22 09:52:56;;;;;;;1.00;0.70;;;19.10;58.80;;;;;;5084755;28;20471;-72
2022/01/22 09:55:22;;;;;;;0.70;0.70;;;19.10;58.80;;;;;;5077458;28;20044;-73
2022/01/22 09:57:47;;;;;;;1.05;0.80;;;19.10;58.80;;;;;;5083469;28;20028;-73
2022/01/22 10:00:14;;;;;;;0.75;0.75;;;19.20;58.80;;;;;;5095158;28;20020;-73
2022/01/22 10:02:45;;;;;;;0.50;0.50;;;19.20;58.70;;;;;;5088805;28;20020;-73
2022/01/22 10:05:26;;;;;;;0.73;0.65;;;19.20;58.70;;;;;;5079102;28;20473;-73
2022/01/22 10:07:53;;;;;;;1.63;0.60;;;19.20;58.50;;;;;;5084697;28;20077;-72
2022/01/22 10:10:19;;;;;;;1.25;0.60;;;19.20;58.70;;;;;;5075414;28;20478;-72
2022/01/22 10:12:53;;;;;;;0.82;0.70;;;19.30;58.70;;;;;;5080916;28;20020;-72
2022/01/22 10:15:21;;;;;;;1.38;0.70;;;19.30;58.60;;;;;;5089282;28;20478;-72
2022/01/22 10:17:51;;;;;;;0.80;0.80;;;19.30;59.20;;;;;;5090016;28;20035;-73
2022/01/22 10:20:28;;;;;;;0.75;0.60;;;19.30;58.60;;;;;;5073233;28;20475;-71
2022/01/22 10:23:02;;;;;;;1.75;0.70;;;19.40;59.60;;;;;;5084664;28;20025;-71
2022/01/22 10:25:33;;;;;;;2.30;0.80;;;19.40;58.60;;;;;;5080676;28;20012;-71
2022/01/22 10:28:11;;;;;;;1.05;0.68;;;19.40;58.60;;;;;;5071799;28;20067;-70
2022/01/22 10:30:41;;;;;;;1.75;0.65;;;19.40;58.50;;;;;;5080458;28;20355;-70
2022/01/22 10:33:33;;;;;;;2.20;0.88;;;19.40;58.50;;;;;;5098583;28;20020;-71
2022/01/22 10:36:20;;;;;;;1.27;0.70;;;19.50;58.50;;;;;;5086468;28;20026;-71
2022/01/22 10:38:53;;;;;;;0.70;0.70;;;19.50;58.40;;;;;;5074425;28;20042;-71
2022/01/22 10:41:31;;;;;;;1.08;0.75;;;19.50;58.60;;;;;;5085146;28;20012;-71
2022/01/22 10:43:57;;;;;;;0.85;0.68;;;19.60;58.30;;;;;;5094119;28;20046;-71
2022/01/22 10:49:11;;;;;;;0.60;0.60;;;19.60;58.50;;;;;;5074148;28;20036;-71
2022/01/22 10:51:58;;;;;;;0.93;0.60;;;19.60;58.30;;;;;;5090199;28;20029;-71
2022/01/22 10:54:25;;;;;;;0.50;0.50;;;19.60;58.10;;;;;;5083113;28;20024;-71
2022/01/22 10:56:51;;;;;;;1.23;0.85;;;19.60;58.40;;;;;;5074718;28;20448;-72
2022/01/22 10:59:19;;;;;;;0.70;0.70;;;19.60;58.30;;;;;;5075395;28;20028;-72
2022/01/22 11:01:53;;;;;;;0.93;0.60;;;19.60;58.30;;;;;;5082484;28;20035;-72
2022/01/22 11:04:28;;;;;;;0.85;0.70;;;19.70;58.30;;;;;;5081417;28;20032;-72
2022/01/22 11:07:04;;;;;;;0.93;0.60;;;19.70;58.20;;;;;;5092559;28;20042;-72
2022/01/22 11:09:31;;;;;;;0.55;0.50;;;19.70;58.10;;;;;;5091296;28;20118;-72
2022/01/22 11:11:57;;;;;;;0.90;0.80;;;19.70;59.20;;;;;;5083818;28;20486;-72
2022/01/22 11:14:23;;;;;;;1.13;0.70;;;19.70;58.10;;;;;;5080364;28;20024;-72
2022/01/22 11:16:49;;;;;;;0.60;0.60;;;19.70;58.10;;;;;;5078117;28;20020;-71
2022/01/22 11:19:23;;;;;;;1.40;0.70;;;19.70;58.10;;;;;;5078447;28;20035;-72
2022/01/22 11:21:51;;;;;;;0.73;0.60;;;19.80;58.10;;;;;;5084889;28;20024;-72
2022/01/22 11:24:19;;;;;;;0.60;0.60;;;19.70;58.00;;;;;;5080112;28;20505;-72
2022/01/22 11:26:48;;;;;;;0.50;0.50;;;19.80;58.10;;;;;;5082855;28;20121;-72
2022/01/22 11:29:15;;;;;;;0.60;0.60;;;19.80;58.10;;;;;;5087890;28;20043;-72
2022/01/22 11:31:40;;;;;;;1.30;0.60;;;19.80;58.00;;;;;;5089037;28;20031;-72
2022/01/22 11:34:06;;;;;;;0.65;0.65;;;19.80;58.00;;;;;;5098537;28;20016;-72
2022/01/22 11:36:36;;;;;;;0.50;0.50;;;19.80;58.00;;;;;;5100084;28;20020;-72
2022/01/22 11:39:02;;;;;;;0.77;0.77;;;19.80;57.90;;;;;;5067878;28;20482;-72
2022/01/22 11:41:28;;;;;;;0.80;0.70;;;19.90;57.90;;;;;;5083981;28;20035;-73
2022/01/22 11:44:17;;;;;;;0.50;0.50;;;19.80;57.80;;;;;;5082871;28;20441;-72
2022/01/22 11:46:50;;;;;;;1.15;0.70;;;19.90;57.50;;;;;;5085372;28;20043;-72
2022/01/22 11:49:17;;;;;;;0.65;0.40;;;19.90;57.80;;;;;;5102740;28;20024;-73
2022/01/22 11:51:45;;;;;;;0.57;0.57;;;19.90;57.80;;;;;;5085266;28;20024;-73
2022/01/22 11:54:11;;;;;;;0.60;0.57;;;19.90;57.80;;;;;;5072126;28;20024;-75
2022/01/22 11:56:43;;;;;;;0.80;0.80;;;19.90;57.70;;;;;;5085626;28;20394;-75
2022/01/22 11:59:15;;;;;;;0.43;0.40;;;19.90;57.70;;;;;;5073811;28;20082;-74
2022/01/22 12:01:54;;;;;;;0.77;0.50;;;19.90;57.60;;;;;;5088702;28;20118;-73
2022/01/22 12:04:22;;;;;;;0.93;0.60;;;19.90;57.80;;;;;;5099969;28;20016;-73
2022/01/22 12:07:15;;;;;;;1.33;0.55;;;19.90;57.70;;;;;;5100336;28;20413;-73
2022/01/22 12:15:31;;;;;;;0.70;0.70;;;20.00;57.50;;;;;;5090132;28;20131;-73
2022/01/22 12:18:12;;;;;;;0.68;0.68;;;20.00;57.60;;;;;;5073178;28;20028;-73
2022/01/22 12:21:30;;;;;;;0.50;0.50;;;20.00;57.70;;;;;;5093118;28;20024;-73
2022/01/22 12:23:30;;;;;;;0.60;0.50;;;20.00;57.70;;;;;;5100070;28;20030;-72
2022/01/22 12:25:56;;;;;;;0.60;0.50;;;20.00;57.60;;;;;;5084626;28;20487;-72
2022/01/22 12:28:42;;;;;;;0.63;0.50;;;20.00;57.50;;;;;;5079869;28;20513;-72
2022/01/22 12:31:10;;;;;;;1.10;0.73;;;20.00;57.30;;;;;;5089140;28;20077;-73
2022/01/22 12:33:39;;;;;;;0.60;0.60;;;20.00;57.50;;;;;;5092613;28;20016;-73
2022/01/22 12:36:07;;;;;;;0.68;0.63;;;20.00;57.50;;;;;;5092249;28;20028;-73
2022/01/22 12:44:13;;;;;;;;;;;20.10;57.20;;;;;;5071381;28;20060;-74
2022/01/22 12:46:39;;;;;;;0.50;0.50;;;19.90;57.10;;;;;;5073594;28;19908;-73
2022/01/22 12:49:06;;;;;;;0.60;0.50;;;19.90;57.60;;;;;;5072464;28;20061;-74
2022/01/22 12:51:31;;;;;;;4.20;0.70;;;19.90;57.50;;;;;;5072349;28;20024;-73
2022/01/22 12:53:57;;;;;;;0.93;0.55;;;20.00;57.50;;;;;;5087578;28;20031;-74
2022/01/22 12:59:03;;;;;;;0.50;0.50;;;20.00;57.40;;;;;;5083344;28;20031;-73
2022/01/22 13:01:31;;;;;;;0.40;0.32;;;20.00;57.40;;;;;;5062856;28;20021;-73
2022/01/22 13:03:57;;;;;;;0.93;0.70;;;20.00;57.30;;;;;;5087114;28;20024;-74
2022/01/22 13:06:25;;;;;;;0.52;0.52;;;20.10;57.40;;;;;;5075841;28;20029;-74
2022/01/22 13:08:57;;;;;;;0.45;0.45;;;20.10;57.30;;;;;;5083766;28;20024;-69
2022/01/22 13:11:27;;;;;;;0.70;0.52;;;20.10;57.30;;;;;;5089269;28;20046;-66
2022/01/22 13:13:54;;;;;;;1.90;0.43;;;20.10;56.90;;;;;;5084592;28;20061;-66
2022/01/22 13:16:20;;;;;;;0.68;0.68;;;20.00;56.60;;;;;;5074521;28;20073;-66
2022/01/22 13:18:56;;;;;;;0.50;0.50;;;20.00;56.60;;;;;;5091709;28;20028;-66
2022/01/22 13:21:23;;;;;;;0.50;0.50;;;19.90;56.60;;;;;;5091007;28;20098;-66
2022/01/22 13:24:22;;;;;;;0.60;0.60;;;19.90;56.50;;;;;;5090456;28;20110;-66
2022/01/22 13:26:57;;;;;;;1.85;0.60;;;19.90;56.00;;;;;;5055712;28;20579;-66
2022/01/22 13:29:34;;;;;;;1.58;0.70;;;19.80;56.50;;;;;;5071233;28;20044;-66
2022/01/22 13:37:55;;;;;;;0.60;0.43;;;19.80;56.30;;;;;;5070149;28;20549;-68
2022/01/22 13:40:35;;;;;;;8.13;1.60;;;19.70;56.40;;;;;;5070480;28;20028;-74
2022/01/22 13:48:30;;;;;;;6.95;1.40;;;19.70;56.80;;;;;;5089029;28;20081;-69
2022/01/22 13:50:56;;;;;;;6.68;1.63;;;19.70;56.80;;;;;;5089600;28;20031;-69
2022/01/22 13:53:21;;;;;;;8.55;1.80;;;19.60;56.80;;;;;;5089535;28;20016;-69
2022/01/22 13:56:08;;;;;;;4.75;1.45;;;19.70;56.90;;;;;;5082121;28;20024;-77
2022/01/22 13:58:34;;;;;;;7.68;1.92;;;19.70;56.70;;;;;;5079204;28;20024;-78
2022/01/22 14:01:06;;;;;;;6.10;1.60;;;19.70;56.90;;;;;;5078739;28;20050;-77
2022/01/22 14:03:39;;;;;;;7.27;1.80;;;19.70;56.80;;;;;;5078794;28;20020;-78
2022/01/22 14:06:08;;;;;;;6.80;1.67;;;19.70;56.80;;;;;;5085081;28;20103;-73
2022/01/22 14:08:34;;;;;;;7.72;1.50;;;19.70;56.70;;;;;;5074232;28;20407;-72
2022/01/22 14:11:12;;;;;;;9.18;1.60;;;19.70;56.80;;;;;;5085946;28;20080;-73
2022/01/22 14:13:38;;;;;;;4.25;1.67;;;19.70;56.60;;;;;;5087372;28;20364;-73
2022/01/22 14:16:20;;;;;;;5.90;1.77;;;19.60;56.60;;;;;;5084905;28;20028;-73
2022/01/22 14:18:45;;;;;;;5.68;1.60;;;19.70;56.40;;;;;;5085300;28;20038;-73
2022/01/22 14:21:18;;;;;;;3.58;1.70;;;19.60;56.50;;;;;;5085913;28;20032;-73
2022/01/22 14:23:43;;;;;;;4.15;1.65;;;19.50;56.40;;;;;;5085238;28;20028;-73
2022/01/22 14:26:23;;;;;;;5.78;1.70;;;19.50;56.40;;;;;;5085483;28;20555;-73
2022/01/22 14:28:51;;;;;;;5.75;1.67;;;19.50;56.40;;;;;;5089539;28;20049;-73
2022/01/22 14:31:22;;;;;;;7.93;1.83;;;19.50;56.40;;;;;;5082314;28;20015;-73
2022/01/22 14:33:48;;;;;;;9.38;1.67;;;19.40;56.40;;;;;;5082809;28;20028;-73
2022/01/22 14:36:18;;;;;;;3.45;1.45;;;19.40;56.40;;;;;;5083139;28;20021;-73
2022/01/22 14:38:56;;;;;;;4.30;1.35;;;19.40;56.30;;;;;;5084978;28;20024;-73
2022/01/22 14:46:55;;;;;;;6.00;1.27;;;19.30;56.40;;;;;;5082060;28;20028;-73
2022/01/22 14:49:26;;;;;;;4.43;1.45;;;19.30;56.30;;;;;;5081696;28;20060;-73
2022/01/22 14:51:52;;;;;;;3.40;1.35;;;19.30;56.30;;;;;;5082899;28;20058;-73
2022/01/22 14:54:19;;;;;;;4.13;1.58;;;19.20;56.30;;;;;;5081670;28;20056;-73
2022/01/22 14:56:45;;;;;;;3.40;1.38;;;19.20;56.30;;;;;;5084294;28;20070;-72